Houthem, Netherlands
Current Conditions -  °F | °C
As of 8:55 AM on Wednesday 26 Nov 2014 (Local Time) from EHBK Reporting Station
Clear Clear  
Wind Chill: 36°   Ceiling: Unl
Heat Index: 41°   Visibility: 4mi
Dew Point: 37°   Wind: 8mph
Humidity: 87%   Direction: 90°E
Pressure: 29.94"   Gusts: NA
Location:  50.87°N, 5.79°E
Report Text: EHBK 260755Z AUTO 09007KT 6000 NSC 05/03 Q1014 BECMG 8000
Loading
Personal Weather Stations






























Interactive Weather Map New forecast layout! Learn more

10-Day Weather Forecast

Advertisements
Track Severe Weather on mobile